sensor_id;sensor_type;location;lat;lon;timestamp;P1;durP1;ratioP1;P2;durP2;ratioP2
34212;SDS011;20477;51.390;8.102;2022-07-01T00:01:01;7.47;;;5.70;;
34212;SDS011;20477;51.390;8.102;2022-07-01T00:03:28;6.35;;;5.75;;
34212;SDS011;20477;51.390;8.102;2022-07-01T00:05:55;7.70;;;5.55;;
34212;SDS011;20477;51.390;8.102;2022-07-01T00:08:23;10.18;;;7.53;;
34212;SDS011;20477;51.390;8.102;2022-07-01T00:10:50;11.13;;;7.18;;
34212;SDS011;20477;51.390;8.102;2022-07-01T00:13:19;9.60;;;8.45;;
34212;SDS011;20477;51.390;8.102;2022-07-01T00:15:46;9.25;;;8.25;;
34212;SDS011;20477;51.390;8.102;2022-07-01T00:18:13;15.48;;;11.27;;
34212;SDS011;20477;51.390;8.102;2022-07-01T00:20:40;11.98;;;10.63;;
34212;SDS011;20477;51.390;8.102;2022-07-01T00:23:08;11.70;;;10.50;;
34212;SDS011;20477;51.390;8.102;2022-07-01T00:25:36;11.35;;;10.23;;
34212;SDS011;20477;51.390;8.102;2022-07-01T00:28:03;12.15;;;10.85;;
34212;SDS011;20477;51.390;8.102;2022-07-01T00:30:30;11.85;;;10.00;;
34212;SDS011;20477;51.390;8.102;2022-07-01T00:32:58;11.23;;;9.95;;
34212;SDS011;20477;51.390;8.102;2022-07-01T00:35:30;9.05;;;7.60;;
34212;SDS011;20477;51.390;8.102;2022-07-01T00:37:56;12.65;;;8.73;;
34212;SDS011;20477;51.390;8.102;2022-07-01T00:40:24;10.15;;;7.13;;
34212;SDS011;20477;51.390;8.102;2022-07-01T00:42:52;6.55;;;5.95;;
34212;SDS011;20477;51.390;8.102;2022-07-01T00:45:19;8.30;;;6.32;;
34212;SDS011;20477;51.390;8.102;2022-07-01T00:47:46;5.82;;;5.07;;
34212;SDS011;20477;51.390;8.102;2022-07-01T00:50:14;6.18;;;5.28;;
34212;SDS011;20477;51.390;8.102;2022-07-01T00:52:43;9.18;;;5.78;;
34212;SDS011;20477;51.390;8.102;2022-07-01T00:55:12;5.55;;;4.72;;
34212;SDS011;20477;51.390;8.102;2022-07-01T00:57:41;6.15;;;5.05;;
34212;SDS011;20477;51.390;8.102;2022-07-01T01:00:10;5.90;;;5.35;;
34212;SDS011;20477;51.390;8.102;2022-07-01T01:02:39;7.00;;;5.03;;
34212;SDS011;20477;51.390;8.102;2022-07-01T01:05:18;5.65;;;5.15;;
34212;SDS011;20477;51.390;8.102;2022-07-01T01:12:22;7.50;;;6.03;;
34212;SDS011;20477;51.390;8.102;2022-07-01T01:15:06;6.53;;;5.63;;
34212;SDS011;20477;51.390;8.102;2022-07-01T01:17:49;7.35;;;5.45;;
34212;SDS011;20477;51.390;8.102;2022-07-01T01:20:31;6.38;;;5.18;;
34212;SDS011;20477;51.390;8.102;2022-07-01T01:22:59;7.20;;;5.30;;
34212;SDS011;20477;51.390;8.102;2022-07-01T01:25:26;5.75;;;4.65;;
34212;SDS011;20477;51.390;8.102;2022-07-01T01:27:53;6.38;;;4.75;;
34212;SDS011;20477;51.390;8.102;2022-07-01T01:30:21;7.70;;;4.35;;
34212;SDS011;20477;51.390;8.102;2022-07-01T01:32:48;11.73;;;4.97;;
34212;SDS011;20477;51.390;8.102;2022-07-01T01:35:21;5.40;;;4.03;;
34212;SDS011;20477;51.390;8.102;2022-07-01T01:37:51;7.68;;;3.95;;
34212;SDS011;20477;51.390;8.102;2022-07-01T01:40:18;5.57;;;4.25;;
34212;SDS011;20477;51.390;8.102;2022-07-01T01:42:57;5.68;;;3.70;;
34212;SDS011;20477;51.390;8.102;2022-07-01T01:45:24;5.50;;;3.53;;
34212;SDS011;20477;51.390;8.102;2022-07-01T01:48:07;4.20;;;3.13;;
34212;SDS011;20477;51.390;8.102;2022-07-01T01:50:38;4.88;;;3.55;;
34212;SDS011;20477;51.390;8.102;2022-07-01T01:53:05;4.78;;;3.45;;
34212;SDS011;20477;51.390;8.102;2022-07-01T01:55:34;3.85;;;2.70;;
34212;SDS011;20477;51.390;8.102;2022-07-01T01:58:03;8.50;;;3.67;;
34212;SDS011;20477;51.390;8.102;2022-07-01T02:00:30;4.93;;;2.88;;
34212;SDS011;20477;51.390;8.102;2022-07-01T02:02:57;3.85;;;3.10;;
34212;SDS011;20477;51.390;8.102;2022-07-01T02:05:29;4.55;;;3.45;;
34212;SDS011;20477;51.390;8.102;2022-07-01T02:08:12;2.83;;;2.55;;
34212;SDS011;20477;51.390;8.102;2022-07-01T02:10:39;6.45;;;3.63;;
34212;SDS011;20477;51.390;8.102;2022-07-01T02:13:06;4.53;;;3.00;;
34212;SDS011;20477;51.390;8.102;2022-07-01T02:15:35;5.15;;;3.35;;
34212;SDS011;20477;51.390;8.102;2022-07-01T02:18:02;7.07;;;3.53;;
34212;SDS011;20477;51.390;8.102;2022-07-01T02:20:29;4.07;;;3.47;;
34212;SDS011;20477;51.390;8.102;2022-07-01T02:22:56;5.65;;;3.47;;
34212;SDS011;20477;51.390;8.102;2022-07-01T02:25:23;3.72;;;3.13;;
34212;SDS011;20477;51.390;8.102;2022-07-01T02:27:50;7.70;;;4.13;;
34212;SDS011;20477;51.390;8.102;2022-07-01T02:30:17;4.68;;;3.42;;
34212;SDS011;20477;51.390;8.102;2022-07-01T02:32:44;4.95;;;3.40;;
34212;SDS011;20477;51.390;8.102;2022-07-01T02:35:11;3.85;;;3.10;;
34212;SDS011;20477;51.390;8.102;2022-07-01T02:37:40;4.70;;;2.78;;
34212;SDS011;20477;51.390;8.102;2022-07-01T02:40:07;3.55;;;3.25;;
34212;SDS011;20477;51.390;8.102;2022-07-01T02:42:35;5.00;;;3.70;;
34212;SDS011;20477;51.390;8.102;2022-07-01T02:45:06;3.92;;;3.22;;
34212;SDS011;20477;51.390;8.102;2022-07-01T02:47:38;4.55;;;4.05;;
34212;SDS011;20477;51.390;8.102;2022-07-01T02:50:06;5.57;;;3.60;;
34212;SDS011;20477;51.390;8.102;2022-07-01T02:52:35;4.18;;;3.78;;
34212;SDS011;20477;51.390;8.102;2022-07-01T02:55:03;3.42;;;3.13;;
34212;SDS011;20477;51.390;8.102;2022-07-01T02:57:31;8.40;;;3.90;;
34212;SDS011;20477;51.390;8.102;2022-07-01T02:59:59;5.65;;;3.85;;
34212;SDS011;20477;51.390;8.102;2022-07-01T03:02:27;5.00;;;3.75;;
34212;SDS011;20477;51.390;8.102;2022-07-01T03:04:54;6.60;;;3.90;;
34212;SDS011;20477;51.390;8.102;2022-07-01T03:07:44;6.85;;;4.20;;
34212;SDS011;20477;51.390;8.102;2022-07-01T03:10:11;8.48;;;5.20;;
34212;SDS011;20477;51.390;8.102;2022-07-01T03:12:39;5.30;;;4.57;;
34212;SDS011;20477;51.390;8.102;2022-07-01T03:15:10;7.00;;;4.80;;
34212;SDS011;20477;51.390;8.102;2022-07-01T03:17:39;6.57;;;5.70;;
34212;SDS011;20477;51.390;8.102;2022-07-01T03:20:08;6.22;;;5.05;;
34212;SDS011;20477;51.390;8.102;2022-07-01T03:22:40;6.20;;;4.85;;
34212;SDS011;20477;51.390;8.102;2022-07-01T03:25:08;6.28;;;5.68;;
34212;SDS011;20477;51.390;8.102;2022-07-01T03:27:36;6.45;;;5.57;;
34212;SDS011;20477;51.390;8.102;2022-07-01T03:30:04;7.35;;;5.65;;
34212;SDS011;20477;51.390;8.102;2022-07-01T03:32:32;7.30;;;5.82;;
34212;SDS011;20477;51.390;8.102;2022-07-01T03:35:00;7.47;;;5.03;;
34212;SDS011;20477;51.390;8.102;2022-07-01T03:37:47;6.60;;;5.15;;
34212;SDS011;20477;51.390;8.102;2022-07-01T03:40:17;5.50;;;5.00;;
34212;SDS011;20477;51.390;8.102;2022-07-01T03:42:45;6.03;;;3.72;;
34212;SDS011;20477;51.390;8.102;2022-07-01T03:45:12;6.22;;;5.10;;
34212;SDS011;20477;51.390;8.102;2022-07-01T03:47:46;6.25;;;4.88;;
34212;SDS011;20477;51.390;8.102;2022-07-01T03:50:16;5.43;;;4.20;;
34212;SDS011;20477;51.390;8.102;2022-07-01T03:52:44;9.20;;;4.30;;
34212;SDS011;20477;51.390;8.102;2022-07-01T03:55:14;5.90;;;4.18;;
34212;SDS011;20477;51.390;8.102;2022-07-01T03:57:43;10.27;;;5.03;;
34212;SDS011;20477;51.390;8.102;2022-07-01T04:00:10;7.45;;;5.07;;
34212;SDS011;20477;51.390;8.102;2022-07-01T04:02:48;7.15;;;5.32;;
34212;SDS011;20477;51.390;8.102;2022-07-01T04:05:15;5.95;;;5.00;;
34212;SDS011;20477;51.390;8.102;2022-07-01T04:07:42;8.43;;;5.72;;
34212;SDS011;20477;51.390;8.102;2022-07-01T04:10:09;6.82;;;4.72;;
34212;SDS011;20477;51.390;8.102;2022-07-01T04:12:36;4.47;;;4.07;;
34212;SDS011;20477;51.390;8.102;2022-07-01T04:15:03;5.10;;;4.60;;
34212;SDS011;20477;51.390;8.102;2022-07-01T04:17:42;9.23;;;5.13;;
34212;SDS011;20477;51.390;8.102;2022-07-01T04:20:09;5.85;;;5.20;;
34212;SDS011;20477;51.390;8.102;2022-07-01T04:22:36;6.97;;;5.60;;
34212;SDS011;20477;51.390;8.102;2022-07-01T04:25:04;7.80;;;5.78;;
34212;SDS011;20477;51.390;8.102;2022-07-01T04:27:31;7.53;;;5.40;;
34212;SDS011;20477;51.390;8.102;2022-07-01T04:29:58;7.60;;;5.38;;
34212;SDS011;20477;51.390;8.102;2022-07-01T04:32:25;6.30;;;5.50;;
34212;SDS011;20477;51.390;8.102;2022-07-01T04:35:10;7.65;;;6.07;;
34212;SDS011;20477;51.390;8.102;2022-07-01T04:37:51;5.68;;;5.00;;
34212;SDS011;20477;51.390;8.102;2022-07-01T04:43:11;8.32;;;5.90;;
34212;SDS011;20477;51.390;8.102;2022-07-01T04:45:54;6.80;;;6.03;;
34212;SDS011;20477;51.390;8.102;2022-07-01T04:48:36;7.53;;;5.28;;
34212;SDS011;20477;51.390;8.102;2022-07-01T04:51:17;9.88;;;5.28;;
34212;SDS011;20477;51.390;8.102;2022-07-01T04:53:50;7.45;;;6.50;;
34212;SDS011;20477;51.390;8.102;2022-07-01T04:56:53;12.63;;;8.77;;
34212;SDS011;20477;51.390;8.102;2022-07-01T04:59:37;8.70;;;5.53;;
34212;SDS011;20477;51.390;8.102;2022-07-01T05:05:02;7.32;;;6.30;;
34212;SDS011;20477;51.390;8.102;2022-07-01T05:07:39;9.35;;;5.90;;
34212;SDS011;20477;51.390;8.102;2022-07-01T05:10:35;8.05;;;5.43;;
34212;SDS011;20477;51.390;8.102;2022-07-01T05:13:12;7.90;;;5.97;;
34212;SDS011;20477;51.390;8.102;2022-07-01T05:15:45;6.93;;;5.78;;
34212;SDS011;20477;51.390;8.102;2022-07-01T05:18:17;6.20;;;5.60;;
34212;SDS011;20477;51.390;8.102;2022-07-01T05:24:32;7.85;;;6.53;;
34212;SDS011;20477;51.390;8.102;2022-07-01T05:29:55;7.30;;;5.57;;
34212;SDS011;20477;51.390;8.102;2022-07-01T05:32:23;6.45;;;5.35;;
34212;SDS011;20477;51.390;8.102;2022-07-01T05:34:59;5.93;;;4.78;;
34212;SDS011;20477;51.390;8.102;2022-07-01T05:37:27;6.20;;;4.90;;
34212;SDS011;20477;51.390;8.102;2022-07-01T05:40:21;11.80;;;5.40;;
34212;SDS011;20477;51.390;8.102;2022-07-01T05:43:00;5.72;;;4.53;;
34212;SDS011;20477;51.390;8.102;2022-07-01T05:45:59;6.50;;;4.65;;
34212;SDS011;20477;51.390;8.102;2022-07-01T05:48:29;5.88;;;4.93;;
34212;SDS011;20477;51.390;8.102;2022-07-01T05:50:58;8.70;;;4.43;;
34212;SDS011;20477;51.390;8.102;2022-07-01T05:53:40;5.82;;;4.30;;
34212;SDS011;20477;51.390;8.102;2022-07-01T05:56:15;5.40;;;4.28;;
34212;SDS011;20477;51.390;8.102;2022-07-01T05:59:06;8.35;;;4.82;;
34212;SDS011;20477;51.390;8.102;2022-07-01T06:02:06;5.10;;;3.65;;
34212;SDS011;20477;51.390;8.102;2022-07-01T06:04:36;7.50;;;3.78;;
34212;SDS011;20477;51.390;8.102;2022-07-01T06:07:09;6.03;;;3.58;;
34212;SDS011;20477;51.390;8.102;2022-07-01T06:10:02;6.80;;;3.58;;
34212;SDS011;20477;51.390;8.102;2022-07-01T06:12:46;5.35;;;3.58;;
34212;SDS011;20477;51.390;8.102;2022-07-01T06:15:36;5.60;;;2.85;;
34212;SDS011;20477;51.390;8.102;2022-07-01T06:18:21;4.18;;;3.13;;
34212;SDS011;20477;51.390;8.102;2022-07-01T06:21:00;8.27;;;3.40;;
34212;SDS011;20477;51.390;8.102;2022-07-01T06:23:56;6.80;;;2.90;;
34212;SDS011;20477;51.390;8.102;2022-07-01T06:26:23;4.82;;;2.75;;
34212;SDS011;20477;51.390;8.102;2022-07-01T06:28:50;5.05;;;2.70;;
34212;SDS011;20477;51.390;8.102;2022-07-01T06:31:17;3.35;;;2.65;;
34212;SDS011;20477;51.390;8.102;2022-07-01T06:33:45;5.00;;;2.95;;
34212;SDS011;20477;51.390;8.102;2022-07-01T06:36:12;4.50;;;2.95;;
34212;SDS011;20477;51.390;8.102;2022-07-01T06:38:40;5.03;;;3.00;;
34212;SDS011;20477;51.390;8.102;2022-07-01T06:41:07;7.47;;;3.38;;
34212;SDS011;20477;51.390;8.102;2022-07-01T06:43:53;7.15;;;2.95;;
34212;SDS011;20477;51.390;8.102;2022-07-01T06:46:21;3.45;;;3.15;;
34212;SDS011;20477;51.390;8.102;2022-07-01T06:48:48;5.68;;;3.38;;
34212;SDS011;20477;51.390;8.102;2022-07-01T06:51:16;5.40;;;3.17;;
34212;SDS011;20477;51.390;8.102;2022-07-01T06:53:43;11.57;;;4.22;;
34212;SDS011;20477;51.390;8.102;2022-07-01T06:56:13;3.80;;;3.10;;
34212;SDS011;20477;51.390;8.102;2022-07-01T06:58:40;6.25;;;2.88;;
34212;SDS011;20477;51.390;8.102;2022-07-01T07:01:07;4.32;;;2.90;;
34212;SDS011;20477;51.390;8.102;2022-07-01T07:03:35;4.85;;;3.45;;
34212;SDS011;20477;51.390;8.102;2022-07-01T07:06:02;6.07;;;3.28;;
34212;SDS011;20477;51.390;8.102;2022-07-01T07:08:30;8.10;;;3.33;;
34212;SDS011;20477;51.390;8.102;2022-07-01T07:10:58;5.28;;;3.30;;
34212;SDS011;20477;51.390;8.102;2022-07-01T07:13:26;8.55;;;4.32;;
34212;SDS011;20477;51.390;8.102;2022-07-01T07:15:53;7.97;;;3.88;;
34212;SDS011;20477;51.390;8.102;2022-07-01T07:18:20;5.60;;;3.20;;
34212;SDS011;20477;51.390;8.102;2022-07-01T07:20:48;8.82;;;3.58;;
34212;SDS011;20477;51.390;8.102;2022-07-01T07:23:25;6.30;;;3.38;;
34212;SDS011;20477;51.390;8.102;2022-07-01T07:25:52;9.05;;;4.10;;
34212;SDS011;20477;51.390;8.102;2022-07-01T07:28:19;7.10;;;3.13;;
34212;SDS011;20477;51.390;8.102;2022-07-01T07:30:47;5.57;;;3.20;;
34212;SDS011;20477;51.390;8.102;2022-07-01T07:33:14;11.20;;;4.45;;
34212;SDS011;20477;51.390;8.102;2022-07-01T07:35:43;6.00;;;3.42;;
34212;SDS011;20477;51.390;8.102;2022-07-01T07:38:10;7.25;;;2.78;;
34212;SDS011;20477;51.390;8.102;2022-07-01T07:40:38;6.70;;;2.72;;
34212;SDS011;20477;51.390;8.102;2022-07-01T07:43:05;7.22;;;3.00;;
34212;SDS011;20477;51.390;8.102;2022-07-01T07:45:33;4.82;;;2.88;;
34212;SDS011;20477;51.390;8.102;2022-07-01T07:48:01;6.90;;;3.47;;
34212;SDS011;20477;51.390;8.102;2022-07-01T07:50:28;6.10;;;2.60;;
34212;SDS011;20477;51.390;8.102;2022-07-01T07:52:55;5.13;;;2.88;;
34212;SDS011;20477;51.390;8.102;2022-07-01T07:55:22;6.28;;;3.05;;
34212;SDS011;20477;51.390;8.102;2022-07-01T07:57:49;5.63;;;2.95;;
34212;SDS011;20477;51.390;8.102;2022-07-01T08:00:16;7.15;;;2.83;;
34212;SDS011;20477;51.390;8.102;2022-07-01T08:02:43;5.85;;;3.13;;
34212;SDS011;20477;51.390;8.102;2022-07-01T08:05:10;4.43;;;2.53;;
34212;SDS011;20477;51.390;8.102;2022-07-01T08:07:38;7.70;;;2.83;;
34212;SDS011;20477;51.390;8.102;2022-07-01T08:10:07;9.73;;;2.80;;
34212;SDS011;20477;51.390;8.102;2022-07-01T08:12:36;5.68;;;3.03;;
34212;SDS011;20477;51.390;8.102;2022-07-01T08:15:03;6.00;;;2.45;;
34212;SDS011;20477;51.390;8.102;2022-07-01T08:17:31;4.53;;;2.20;;
34212;SDS011;20477;51.390;8.102;2022-07-01T08:19:58;7.40;;;2.40;;
34212;SDS011;20477;51.390;8.102;2022-07-01T08:22:25;9.88;;;2.83;;
34212;SDS011;20477;51.390;8.102;2022-07-01T08:24:52;3.60;;;2.15;;
34212;SDS011;20477;51.390;8.102;2022-07-01T08:27:19;6.28;;;2.50;;
34212;SDS011;20477;51.390;8.102;2022-07-01T08:30:07;5.65;;;2.30;;
34212;SDS011;20477;51.390;8.102;2022-07-01T08:32:35;4.70;;;2.20;;
34212;SDS011;20477;51.390;8.102;2022-07-01T08:35:02;6.80;;;2.88;;
34212;SDS011;20477;51.390;8.102;2022-07-01T08:37:29;5.93;;;2.13;;
34212;SDS011;20477;51.390;8.102;2022-07-01T08:39:56;4.85;;;2.28;;
34212;SDS011;20477;51.390;8.102;2022-07-01T08:42:25;3.92;;;2.83;;
34212;SDS011;20477;51.390;8.102;2022-07-01T08:44:52;4.20;;;1.95;;
34212;SDS011;20477;51.390;8.102;2022-07-01T08:47:19;7.43;;;2.20;;
34212;SDS011;20477;51.390;8.102;2022-07-01T08:49:46;6.55;;;2.20;;
34212;SDS011;20477;51.390;8.102;2022-07-01T08:52:20;9.25;;;2.38;;
34212;SDS011;20477;51.390;8.102;2022-07-01T08:54:53;5.90;;;2.25;;
34212;SDS011;20477;51.390;8.102;2022-07-01T08:57:25;6.70;;;2.30;;
34212;SDS011;20477;51.390;8.102;2022-07-01T09:00:04;6.43;;;2.30;;
34212;SDS011;20477;51.390;8.102;2022-07-01T09:05:24;6.32;;;2.40;;
34212;SDS011;20477;51.390;8.102;2022-07-01T09:08:00;6.13;;;3.00;;
34212;SDS011;20477;51.390;8.102;2022-07-01T09:10:28;9.05;;;2.35;;
34212;SDS011;20477;51.390;8.102;2022-07-01T09:13:09;4.45;;;3.00;;
34212;SDS011;20477;51.390;8.102;2022-07-01T09:15:41;5.22;;;2.38;;
34212;SDS011;20477;51.390;8.102;2022-07-01T09:18:13;6.53;;;2.10;;
34212;SDS011;20477;51.390;8.102;2022-07-01T09:20:42;5.80;;;2.42;;
34212;SDS011;20477;51.390;8.102;2022-07-01T09:23:11;5.20;;;2.70;;
34212;SDS011;20477;51.390;8.102;2022-07-01T09:25:43;5.85;;;2.55;;
34212;SDS011;20477;51.390;8.102;2022-07-01T09:28:21;6.32;;;2.30;;
34212;SDS011;20477;51.390;8.102;2022-07-01T09:30:50;5.90;;;2.40;;
34212;SDS011;20477;51.390;8.102;2022-07-01T09:33:21;5.30;;;2.90;;
34212;SDS011;20477;51.390;8.102;2022-07-01T09:35:55;6.95;;;2.92;;
34212;SDS011;20477;51.390;8.102;2022-07-01T09:38:23;4.95;;;3.17;;
34212;SDS011;20477;51.390;8.102;2022-07-01T09:41:02;4.57;;;3.20;;
34212;SDS011;20477;51.390;8.102;2022-07-01T09:43:34;6.40;;;2.77;;
34212;SDS011;20477;51.390;8.102;2022-07-01T09:51:02;7.38;;;3.30;;
34212;SDS011;20477;51.390;8.102;2022-07-01T09:53:39;6.45;;;3.85;;
34212;SDS011;20477;51.390;8.102;2022-07-01T09:56:06;5.53;;;3.60;;
34212;SDS011;20477;51.390;8.102;2022-07-01T09:58:34;5.07;;;3.45;;
34212;SDS011;20477;51.390;8.102;2022-07-01T10:01:13;5.88;;;3.65;;
34212;SDS011;20477;51.390;8.102;2022-07-01T10:03:49;11.80;;;3.65;;
34212;SDS011;20477;51.390;8.102;2022-07-01T10:06:31;6.28;;;3.78;;
34212;SDS011;20477;51.390;8.102;2022-07-01T10:12:53;7.82;;;3.65;;
34212;SDS011;20477;51.390;8.102;2022-07-01T10:15:11;6.60;;;3.45;;
34212;SDS011;20477;51.390;8.102;2022-07-01T10:17:42;5.82;;;3.47;;
34212;SDS011;20477;51.390;8.102;2022-07-01T10:20:15;8.63;;;3.70;;
34212;SDS011;20477;51.390;8.102;2022-07-01T10:22:49;4.63;;;3.08;;
34212;SDS011;20477;51.390;8.102;2022-07-01T10:25:32;6.22;;;3.22;;
34212;SDS011;20477;51.390;8.102;2022-07-01T10:41:32;5.65;;;3.30;;
34212;SDS011;20477;51.390;8.102;2022-07-01T10:44:02;6.28;;;3.78;;
34212;SDS011;20477;51.390;8.102;2022-07-01T10:49:16;7.22;;;3.63;;
34212;SDS011;20477;51.390;8.102;2022-07-01T10:51:55;8.55;;;2.95;;
34212;SDS011;20477;51.390;8.102;2022-07-01T10:54:51;3.92;;;3.08;;
34212;SDS011;20477;51.390;8.102;2022-07-01T11:02:28;4.57;;;2.72;;
34212;SDS011;20477;51.390;8.102;2022-07-01T11:05:00;9.23;;;3.40;;
34212;SDS011;20477;51.390;8.102;2022-07-01T11:07:36;6.13;;;2.30;;
34212;SDS011;20477;51.390;8.102;2022-07-01T11:10:15;3.75;;;2.58;;
34212;SDS011;20477;51.390;8.102;2022-07-01T11:12:43;5.03;;;2.90;;
34212;SDS011;20477;51.390;8.102;2022-07-01T11:15:17;5.82;;;2.45;;
34212;SDS011;20477;51.390;8.102;2022-07-01T11:17:48;6.28;;;2.78;;
34212;SDS011;20477;51.390;8.102;2022-07-01T11:20:21;5.15;;;2.67;;
34212;SDS011;20477;51.390;8.102;2022-07-01T11:23:06;6.93;;;2.65;;
34212;SDS011;20477;51.390;8.102;2022-07-01T11:25:50;3.90;;;2.28;;
34212;SDS011;20477;51.390;8.102;2022-07-01T11:28:22;4.72;;;2.03;;
34212;SDS011;20477;51.390;8.102;2022-07-01T11:30:57;2.13;;;1.92;;
34212;SDS011;20477;51.390;8.102;2022-07-01T11:33:27;5.95;;;2.38;;
34212;SDS011;20477;51.390;8.102;2022-07-01T11:35:59;6.82;;;2.20;;
34212;SDS011;20477;51.390;8.102;2022-07-01T11:38:45;6.82;;;2.45;;
34212;SDS011;20477;51.390;8.102;2022-07-01T11:41:30;2.65;;;2.22;;
34212;SDS011;20477;51.390;8.102;2022-07-01T11:43:57;4.00;;;1.95;;
34212;SDS011;20477;51.390;8.102;2022-07-01T11:46:51;7.00;;;2.60;;
34212;SDS011;20477;51.390;8.102;2022-07-01T11:49:20;3.40;;;1.85;;
34212;SDS011;20477;51.390;8.102;2022-07-01T11:54:54;3.40;;;1.70;;
34212;SDS011;20477;51.390;8.102;2022-07-01T11:57:45;3.83;;;2.03;;
34212;SDS011;20477;51.390;8.102;2022-07-01T12:00:21;5.78;;;2.53;;
34212;SDS011;20477;51.390;8.102;2022-07-01T12:02:51;5.18;;;2.45;;
34212;SDS011;20477;51.390;8.102;2022-07-01T12:05:27;5.18;;;2.25;;
34212;SDS011;20477;51.390;8.102;2022-07-01T12:08:25;3.53;;;1.92;;
34212;SDS011;20477;51.390;8.102;2022-07-01T12:10:53;5.32;;;2.45;;
34212;SDS011;20477;51.390;8.102;2022-07-01T12:13:21;4.63;;;2.40;;
34212;SDS011;20477;51.390;8.102;2022-07-01T12:16:05;8.02;;;3.20;;
34212;SDS011;20477;51.390;8.102;2022-07-01T12:18:36;7.87;;;3.87;;
34212;SDS011;20477;51.390;8.102;2022-07-01T12:21:06;6.15;;;2.88;;
34212;SDS011;20477;51.390;8.102;2022-07-01T12:23:36;6.20;;;2.55;;
34212;SDS011;20477;51.390;8.102;2022-07-01T12:26:10;7.93;;;3.30;;
34212;SDS011;20477;51.390;8.102;2022-07-01T12:28:43;5.35;;;2.40;;
34212;SDS011;20477;51.390;8.102;2022-07-01T12:31:24;10.33;;;2.37;;
34212;SDS011;20477;51.390;8.102;2022-07-01T12:34:04;5.82;;;1.90;;
34212;SDS011;20477;51.390;8.102;2022-07-01T12:36:31;11.55;;;2.20;;
34212;SDS011;20477;51.390;8.102;2022-07-01T12:38:59;9.45;;;2.67;;
34212;SDS011;20477;51.390;8.102;2022-07-01T12:41:34;7.32;;;2.55;;
34212;SDS011;20477;51.390;8.102;2022-07-01T12:44:05;12.73;;;4.50;;
34212;SDS011;20477;51.390;8.102;2022-07-01T12:46:50;7.28;;;2.20;;
34212;SDS011;20477;51.390;8.102;2022-07-01T12:49:23;5.65;;;2.03;;
34212;SDS011;20477;51.390;8.102;2022-07-01T12:52:04;6.70;;;2.47;;
34212;SDS011;20477;51.390;8.102;2022-07-01T12:57:35;9.48;;;3.08;;
34212;SDS011;20477;51.390;8.102;2022-07-01T13:00:04;4.60;;;2.38;;
34212;SDS011;20477;51.390;8.102;2022-07-01T13:02:31;8.80;;;2.95;;
34212;SDS011;20477;51.390;8.102;2022-07-01T13:04:59;5.63;;;2.03;;
34212;SDS011;20477;51.390;8.102;2022-07-01T13:07:25;12.60;;;2.00;;
34212;SDS011;20477;51.390;8.102;2022-07-01T13:09:52;6.65;;;2.15;;
34212;SDS011;20477;51.390;8.102;2022-07-01T13:12:19;5.03;;;2.08;;
34212;SDS011;20477;51.390;8.102;2022-07-01T13:14:47;12.13;;;2.38;;
34212;SDS011;20477;51.390;8.102;2022-07-01T13:17:14;7.93;;;2.15;;
34212;SDS011;20477;51.390;8.102;2022-07-01T13:19:41;3.30;;;1.90;;
34212;SDS011;20477;51.390;8.102;2022-07-01T13:22:16;5.73;;;2.27;;
34212;SDS011;20477;51.390;8.102;2022-07-01T13:24:48;5.82;;;2.15;;
34212;SDS011;20477;51.390;8.102;2022-07-01T13:27:33;3.75;;;2.03;;
34212;SDS011;20477;51.390;8.102;2022-07-01T13:30:03;4.40;;;1.67;;
34212;SDS011;20477;51.390;8.102;2022-07-01T13:32:31;7.35;;;2.10;;
34212;SDS011;20477;51.390;8.102;2022-07-01T13:35:01;6.40;;;2.00;;
34212;SDS011;20477;51.390;8.102;2022-07-01T13:37:31;7.57;;;1.52;;
34212;SDS011;20477;51.390;8.102;2022-07-01T13:40:14;8.00;;;2.03;;
34212;SDS011;20477;51.390;8.102;2022-07-01T13:42:47;4.97;;;1.42;;
34212;SDS011;20477;51.390;8.102;2022-07-01T13:45:24;2.67;;;1.15;;
34212;SDS011;20477;51.390;8.102;2022-07-01T13:48:05;4.28;;;1.13;;
34212;SDS011;20477;51.390;8.102;2022-07-01T13:50:41;3.55;;;1.38;;
34212;SDS011;20477;51.390;8.102;2022-07-01T13:53:37;4.13;;;1.20;;
34212;SDS011;20477;51.390;8.102;2022-07-01T13:56:07;3.28;;;1.50;;
34212;SDS011;20477;51.390;8.102;2022-07-01T13:58:41;6.20;;;1.25;;
34212;SDS011;20477;51.390;8.102;2022-07-01T14:01:31;4.57;;;1.20;;
34212;SDS011;20477;51.390;8.102;2022-07-01T14:04:06;3.50;;;1.35;;
34212;SDS011;20477;51.390;8.102;2022-07-01T14:06:49;2.60;;;1.02;;
34212;SDS011;20477;51.390;8.102;2022-07-01T14:09:27;7.15;;;1.20;;
34212;SDS011;20477;51.390;8.102;2022-07-01T14:11:59;2.47;;;1.00;;
34212;SDS011;20477;51.390;8.102;2022-07-01T14:14:55;4.72;;;1.00;;
34212;SDS011;20477;51.390;8.102;2022-07-01T14:17:29;2.65;;;1.00;;
34212;SDS011;20477;51.390;8.102;2022-07-01T14:20:02;5.70;;;1.33;;
34212;SDS011;20477;51.390;8.102;2022-07-01T14:22:31;2.50;;;1.10;;
34212;SDS011;20477;51.390;8.102;2022-07-01T14:25:01;5.97;;;1.30;;
34212;SDS011;20477;51.390;8.102;2022-07-01T14:27:41;8.02;;;1.92;;
34212;SDS011;20477;51.390;8.102;2022-07-01T14:30:12;3.22;;;0.88;;
34212;SDS011;20477;51.390;8.102;2022-07-01T14:32:43;3.10;;;1.08;;
34212;SDS011;20477;51.390;8.102;2022-07-01T14:35:29;2.97;;;1.30;;
34212;SDS011;20477;51.390;8.102;2022-07-01T14:38:02;5.18;;;0.93;;
34212;SDS011;20477;51.390;8.102;2022-07-01T14:40:31;7.05;;;1.30;;
34212;SDS011;20477;51.390;8.102;2022-07-01T14:42:59;4.03;;;1.00;;
34212;SDS011;20477;51.390;8.102;2022-07-01T14:45:26;5.13;;;1.10;;
34212;SDS011;20477;51.390;8.102;2022-07-01T14:47:53;4.38;;;1.50;;
34212;SDS011;20477;51.390;8.102;2022-07-01T14:50:20;2.72;;;0.80;;
34212;SDS011;20477;51.390;8.102;2022-07-01T14:53:05;4.90;;;1.17;;
34212;SDS011;20477;51.390;8.102;2022-07-01T14:55:34;4.38;;;0.98;;
34212;SDS011;20477;51.390;8.102;2022-07-01T14:58:01;2.47;;;1.10;;
34212;SDS011;20477;51.390;8.102;2022-07-01T15:00:29;2.03;;;1.02;;
34212;SDS011;20477;51.390;8.102;2022-07-01T15:03:03;11.73;;;1.00;;
34212;SDS011;20477;51.390;8.102;2022-07-01T15:05:35;4.80;;;1.33;;
34212;SDS011;20477;51.390;8.102;2022-07-01T15:08:02;6.30;;;1.33;;
34212;SDS011;20477;51.390;8.102;2022-07-01T15:10:33;4.40;;;1.45;;
34212;SDS011;20477;51.390;8.102;2022-07-01T15:13:29;7.45;;;1.48;;
34212;SDS011;20477;51.390;8.102;2022-07-01T15:16:21;6.57;;;1.30;;
34212;SDS011;20477;51.390;8.102;2022-07-01T15:18:49;4.55;;;1.13;;
34212;SDS011;20477;51.390;8.102;2022-07-01T15:21:16;2.20;;;0.90;;
34212;SDS011;20477;51.390;8.102;2022-07-01T15:23:44;3.92;;;1.50;;
34212;SDS011;20477;51.390;8.102;2022-07-01T15:26:11;5.90;;;1.15;;
34212;SDS011;20477;51.390;8.102;2022-07-01T15:28:41;6.28;;;1.20;;
34212;SDS011;20477;51.390;8.102;2022-07-01T15:31:11;3.95;;;1.33;;
34212;SDS011;20477;51.390;8.102;2022-07-01T15:34:09;4.47;;;1.40;;
34212;SDS011;20477;51.390;8.102;2022-07-01T15:36:44;3.80;;;0.95;;
34212;SDS011;20477;51.390;8.102;2022-07-01T15:39:15;6.55;;;1.42;;
34212;SDS011;20477;51.390;8.102;2022-07-01T15:41:42;2.47;;;0.85;;
34212;SDS011;20477;51.390;8.102;2022-07-01T15:44:10;4.72;;;1.08;;
34212;SDS011;20477;51.390;8.102;2022-07-01T15:46:38;3.35;;;1.30;;
34212;SDS011;20477;51.390;8.102;2022-07-01T15:49:08;5.95;;;1.00;;
34212;SDS011;20477;51.390;8.102;2022-07-01T15:51:38;5.57;;;1.20;;
34212;SDS011;20477;51.390;8.102;2022-07-01T15:54:06;4.20;;;1.25;;
34212;SDS011;20477;51.390;8.102;2022-07-01T15:56:33;3.17;;;1.00;;
34212;SDS011;20477;51.390;8.102;2022-07-01T15:59:04;2.72;;;1.00;;
34212;SDS011;20477;51.390;8.102;2022-07-01T16:01:34;4.63;;;1.02;;
34212;SDS011;20477;51.390;8.102;2022-07-01T16:04:06;4.90;;;1.02;;
34212;SDS011;20477;51.390;8.102;2022-07-01T16:06:44;2.78;;;1.65;;
34212;SDS011;20477;51.390;8.102;2022-07-01T16:09:30;5.03;;;0.60;;
34212;SDS011;20477;51.390;8.102;2022-07-01T16:12:00;1.92;;;0.82;;